createdAt,value
2023-02-19T00:01:36.243Z,100479.03
2023-02-19T00:04:07.368Z,100490.65
2023-02-19T00:06:35.342Z,100496.72
2023-02-19T00:09:03.018Z,100495.50
2023-02-19T00:11:32.715Z,100494.29
2023-02-19T00:14:00.969Z,100506.41
2023-02-19T00:16:36.750Z,100515.08
2023-02-19T00:19:07.621Z,100518.90
2023-02-19T00:21:34.624Z,100522.89
2023-02-19T00:24:03.628Z,100523.94
2023-02-19T00:26:31.112Z,100523.58
2023-02-19T00:28:59.265Z,100523.92
2023-02-19T00:31:27.629Z,100525.31
2023-02-19T00:33:57.685Z,100511.63
2023-02-19T00:36:26.308Z,100505.03
2023-02-19T00:38:53.335Z,100500.02
2023-02-19T00:41:20.999Z,100500.18
2023-02-19T00:43:49.580Z,100496.38
2023-02-19T00:46:19.158Z,100490.66
2023-02-19T00:48:46.959Z,100492.73
2023-02-19T00:51:14.855Z,100494.30
2023-02-19T00:53:42.662Z,100491.70
2023-02-19T00:56:10.006Z,100483.91
2023-02-19T00:58:37.569Z,100479.23
2023-02-19T01:01:06.117Z,100476.29
2023-02-19T01:03:34.333Z,100474.71
2023-02-19T01:06:02.433Z,100472.30
2023-02-19T01:08:33.044Z,100479.05
2023-02-19T01:11:04.542Z,100475.58
2023-02-19T01:13:32.300Z,100482.17
2023-02-19T01:16:05.946Z,100489.10
2023-02-19T01:18:33.622Z,100492.90
2023-02-19T01:21:08.686Z,100498.10
2023-02-19T01:23:40.199Z,100492.39
2023-02-19T01:26:12.794Z,100501.91
2023-02-19T01:28:40.498Z,100500.52
2023-02-19T01:31:10.565Z,100503.80
2023-02-19T01:33:37.681Z,100505.55
2023-02-19T01:36:06.398Z,100504.86
2023-02-19T01:38:33.353Z,100511.61
2023-02-19T01:41:02.861Z,100511.79
2023-02-19T01:43:32.840Z,100513.86
2023-02-19T01:45:59.991Z,100517.31
2023-02-19T01:48:37.711Z,100516.46
2023-02-19T01:51:06.592Z,100518.36
2023-02-19T01:53:38.745Z,100523.39
2023-02-19T01:56:06.919Z,100526.52
2023-02-19T01:58:39.156Z,100528.41
2023-02-19T02:01:08.100Z,100523.55
2023-02-19T02:03:37.585Z,100520.96
2023-02-19T02:06:21.609Z,100519.75
2023-02-19T02:09:13.565Z,100525.30
2023-02-19T02:11:47.993Z,100526.69
2023-02-19T02:14:18.066Z,100527.71
2023-02-19T02:17:03.928Z,100532.39
2023-02-19T02:20:05.099Z,100537.58
2023-02-19T02:22:41.803Z,100555.40
2023-02-19T02:25:26.974Z,100565.29
2023-02-19T02:28:06.326Z,100583.29
2023-02-19T02:30:42.276Z,100601.81
2023-02-19T02:33:27.978Z,100612.54
2023-02-19T02:36:24.032Z,100632.80
2023-02-19T02:38:53.502Z,100648.73
2023-02-19T02:41:21.626Z,100657.45
2023-02-19T02:43:48.779Z,100663.60
2023-02-19T02:46:19.485Z,100665.36
2023-02-19T02:49:03.299Z,100665.91
2023-02-19T02:51:38.183Z,100663.66
2023-02-19T02:54:42.046Z,100663.30
2023-02-19T02:57:15.543Z,100659.16
2023-02-19T02:59:48.621Z,100659.48
2023-02-19T03:02:22.690Z,100656.55
2023-02-19T03:05:14.348Z,100663.84
2023-02-19T03:08:10.890Z,100669.21
2023-02-19T03:10:46.253Z,100680.49
2023-02-19T03:13:51.911Z,100677.36
2023-02-19T03:16:49.027Z,100683.61
2023-02-19T03:19:19.920Z,100683.26
2023-02-19T03:22:10.340Z,100687.77
2023-02-19T03:25:09.111Z,100685.34
2023-02-19T03:27:39.194Z,100699.02
2023-02-19T03:30:14.129Z,100708.38
2023-02-19T03:33:08.157Z,100712.88
2023-02-19T03:35:44.501Z,100704.89
2023-02-19T03:38:23.885Z,100707.99
2023-02-19T03:41:13.333Z,100715.42
2023-02-19T03:43:52.112Z,100722.85
2023-02-19T03:46:41.588Z,100724.05
2023-02-19T03:49:43.689Z,100723.52
2023-02-19T03:52:21.139Z,100724.36
2023-02-19T03:55:15.874Z,100704.94
2023-02-19T03:57:46.048Z,100701.67
2023-02-19T04:00:24.998Z,100697.69
2023-02-19T04:03:00.237Z,100699.71
2023-02-19T04:05:35.492Z,100709.06
2023-02-19T04:08:16.576Z,100716.85
2023-02-19T04:10:49.210Z,100713.39
2023-02-19T04:13:27.477Z,100721.70
2023-02-19T04:16:00.297Z,100724.63
2023-02-19T04:18:33.869Z,100728.45
2023-02-19T04:21:02.833Z,100744.72
2023-02-19T04:23:37.103Z,100745.05
2023-02-19T04:26:06.049Z,100744.23
2023-02-19T04:28:33.676Z,100751.52
2023-02-19T04:31:01.669Z,100753.73
2023-02-19T04:33:28.472Z,100760.80
2023-02-19T04:35:55.476Z,100765.11
2023-02-19T04:38:22.418Z,100766.35
2023-02-19T04:40:50.883Z,100770.31
2023-02-19T04:43:18.596Z,100769.78
2023-02-19T04:45:45.404Z,100780.73
2023-02-19T04:48:12.275Z,100786.41
2023-02-19T04:50:40.380Z,100791.27
2023-02-19T04:53:07.469Z,100787.98
2023-02-19T04:55:38.783Z,100797.33
2023-02-19T04:58:05.870Z,100793.52
2023-02-19T05:00:33.412Z,100783.84
2023-02-19T05:03:00.687Z,100786.59
2023-02-19T05:05:27.682Z,100789.88
2023-02-19T05:07:54.503Z,100790.56
2023-02-19T05:10:21.524Z,100801.48
2023-02-19T05:12:48.654Z,100810.02
2023-02-19T05:15:16.026Z,100822.79
2023-02-19T05:17:43.063Z,100833.16
2023-02-19T05:20:10.030Z,100843.89
2023-02-19T05:22:36.995Z,100861.20
2023-02-19T05:25:04.727Z,100864.85
2023-02-19T05:27:32.319Z,100865.59
2023-02-19T05:30:01.256Z,100870.95
2023-02-19T05:32:28.407Z,100877.34
2023-02-19T05:34:55.248Z,100886.33
2023-02-19T05:37:22.372Z,100895.48
2023-02-19T05:39:49.687Z,100898.41
2023-02-19T05:42:16.842Z,100902.75
2023-02-19T05:44:43.882Z,100908.48
2023-02-19T05:47:10.992Z,100911.42
2023-02-19T05:49:37.855Z,100915.89
2023-02-19T05:52:05.093Z,100917.23
2023-02-19T05:54:32.257Z,100929.16
2023-02-19T05:56:59.544Z,100935.29
2023-02-19T05:59:27.797Z,100934.13
2023-02-19T06:01:55.173Z,100942.83
2023-02-19T06:04:22.884Z,100956.33
2023-02-19T06:06:50.752Z,100971.38
2023-02-19T06:09:18.045Z,100976.95
2023-02-19T06:11:45.042Z,100980.23
2023-02-19T06:14:13.876Z,100976.89
2023-02-19T06:16:41.196Z,100975.00
2023-02-19T06:19:08.105Z,100973.67
2023-02-19T06:21:35.216Z,100973.56
2023-02-19T06:24:11.127Z,100962.44
2023-02-19T06:26:38.112Z,100962.85
2023-02-19T06:29:05.240Z,100959.73
2023-02-19T06:31:32.106Z,100970.70
2023-02-19T06:34:03.809Z,100979.52
2023-02-19T06:36:32.553Z,100977.42
2023-02-19T06:39:00.481Z,100977.77
2023-02-19T06:41:27.296Z,100968.21
2023-02-19T06:43:54.530Z,100957.34
2023-02-19T06:46:21.430Z,100944.63
2023-02-19T06:48:48.858Z,100942.22
2023-02-19T06:51:18.929Z,100941.14
2023-02-19T06:53:46.501Z,100936.85
2023-02-19T06:56:31.937Z,100923.33
2023-02-19T06:59:02.011Z,100893.39
2023-02-19T07:01:30.765Z,100891.52
2023-02-19T07:03:58.206Z,100884.07
2023-02-19T07:06:25.905Z,100879.54
2023-02-19T07:08:54.973Z,100875.70
2023-02-19T07:11:22.754Z,100873.01
2023-02-19T07:13:56.616Z,100876.36
2023-02-19T07:16:24.712Z,100876.55
2023-02-19T07:18:52.035Z,100880.27
2023-02-19T07:21:19.146Z,100889.12
2023-02-19T07:23:46.128Z,100890.97
2023-02-19T07:26:15.074Z,100899.13
2023-02-19T07:28:46.697Z,100902.58
2023-02-19T07:31:15.868Z,100909.92
2023-02-19T07:33:44.054Z,100921.16
2023-02-19T07:36:12.224Z,100924.45
2023-02-19T07:38:39.409Z,100924.41
2023-02-19T07:41:07.060Z,100925.58
2023-02-19T07:43:36.406Z,100918.03
2023-02-19T07:46:05.297Z,100932.08
2023-02-19T07:48:34.689Z,100930.39
2023-02-19T07:51:03.589Z,100929.27
2023-02-19T07:53:32.951Z,100917.20
2023-02-19T07:56:01.831Z,100915.83
2023-02-19T07:58:31.022Z,100906.13
2023-02-19T08:01:06.638Z,100917.58
2023-02-19T08:03:34.642Z,100936.10
2023-02-19T08:06:01.853Z,100945.83
2023-02-19T08:08:29.449Z,100945.83
2023-02-19T08:11:18.406Z,100936.70
2023-02-19T08:13:48.794Z,100923.18
2023-02-19T08:16:29.567Z,100907.80
2023-02-19T08:19:05.813Z,100900.67
2023-02-19T08:21:34.495Z,100889.42
2023-02-19T08:24:01.959Z,100893.37
2023-02-19T08:26:28.686Z,100894.71
2023-02-19T08:28:55.627Z,100896.60
2023-02-19T08:31:22.480Z,100900.10
2023-02-19T08:33:49.383Z,100896.42
2023-02-19T08:36:16.432Z,100894.23
2023-02-19T08:38:45.610Z,100903.65
2023-02-19T08:41:13.733Z,100907.84
2023-02-19T08:43:42.058Z,100914.84
2023-02-19T08:46:12.403Z,100916.60
2023-02-19T08:48:39.806Z,100916.45
2023-02-19T08:51:10.846Z,100920.55
2023-02-19T08:53:39.854Z,100922.26
2023-02-19T08:56:13.148Z,100914.34
2023-02-19T08:58:40.441Z,100900.63
2023-02-19T09:01:13.095Z,100895.83
2023-02-19T09:03:41.028Z,100890.17
2023-02-19T09:06:13.954Z,100880.98
2023-02-19T09:08:41.325Z,100879.63
2023-02-19T09:11:08.155Z,100881.17
2023-02-19T09:13:35.192Z,100872.86
2023-02-19T09:16:03.217Z,100867.63
2023-02-19T09:18:30.520Z,100859.61
2023-02-19T09:21:03.986Z,100854.95
2023-02-19T09:23:36.495Z,100853.56
2023-02-19T09:26:08.089Z,100846.11
2023-02-19T09:28:35.867Z,100843.34
2023-02-19T09:31:05.483Z,100837.25
2023-02-19T09:33:32.901Z,100832.40
2023-02-19T09:36:01.410Z,100827.70
2023-02-19T09:38:29.769Z,100824.40
2023-02-19T09:40:58.848Z,100826.83
2023-02-19T09:43:29.499Z,100825.95
2023-02-19T09:46:11.836Z,100835.35
2023-02-19T09:48:38.893Z,100839.84
2023-02-19T09:51:10.269Z,100846.29
2023-02-19T09:53:43.966Z,100854.10
2023-02-19T09:56:11.183Z,100860.86
2023-02-19T09:58:48.157Z,100861.90
2023-02-19T10:01:15.879Z,100864.33
2023-02-19T10:03:46.663Z,100866.23
2023-02-19T10:06:23.187Z,100868.31
2023-02-19T10:08:54.055Z,100867.61
2023-02-19T10:11:25.184Z,100866.05
2023-02-19T10:14:08.741Z,100866.73
2023-02-19T10:16:43.501Z,100857.32
2023-02-19T10:19:12.756Z,100852.83
2023-02-19T10:21:40.841Z,100844.95
2023-02-19T10:24:14.609Z,100840.44
2023-02-19T10:26:41.812Z,100838.86
2023-02-19T10:29:09.995Z,100834.16
2023-02-19T10:31:37.413Z,100835.66
2023-02-19T10:34:18.249Z,100830.37
2023-02-19T10:36:49.716Z,100818.58
2023-02-19T10:39:41.681Z,100805.11
2023-02-19T10:42:23.352Z,100801.36
2023-02-19T10:44:58.631Z,100794.95
2023-02-19T10:47:29.493Z,100794.55
2023-02-19T10:50:00.810Z,100789.57
2023-02-19T10:52:33.505Z,100789.30
2023-02-19T10:55:24.345Z,100784.15
2023-02-19T10:57:51.729Z,100785.90
2023-02-19T11:00:28.389Z,100775.89
2023-02-19T11:03:19.303Z,100766.81
2023-02-19T11:06:01.433Z,100762.20
2023-02-19T11:08:56.640Z,100762.83
2023-02-19T11:11:37.282Z,100760.20
2023-02-19T11:14:17.072Z,100754.38
2023-02-19T11:16:52.925Z,100747.85
2023-02-19T11:19:40.912Z,100738.71
2023-02-19T11:22:30.296Z,100742.23
2023-02-19T11:25:14.465Z,100748.00
2023-02-19T11:28:06.455Z,100743.48
2023-02-19T11:30:40.115Z,100738.16
2023-02-19T11:33:29.643Z,100736.45
2023-02-19T11:36:29.469Z,100734.80
2023-02-19T11:39:00.866Z,100726.33
2023-02-19T11:41:36.573Z,100715.94
2023-02-19T11:44:32.495Z,100710.23
2023-02-19T11:47:21.190Z,100710.60
2023-02-19T11:50:02.505Z,100708.17
2023-02-19T11:53:09.073Z,100707.54
2023-02-19T11:55:51.434Z,100712.09
2023-02-19T11:58:47.329Z,100711.46
2023-02-19T12:01:48.514Z,100712.89
2023-02-19T12:04:43.085Z,100719.55
2023-02-19T12:07:38.503Z,100706.64
2023-02-19T12:10:08.512Z,100683.94
2023-02-19T12:12:42.180Z,100693.98
2023-02-19T12:15:43.564Z,100692.60
2023-02-19T12:18:39.965Z,100677.37
2023-02-19T12:21:17.374Z,100677.33
2023-02-19T12:23:56.122Z,100674.95
2023-02-19T12:26:59.171Z,100670.11
2023-02-19T12:29:36.474Z,100668.23
2023-02-19T12:32:03.655Z,100669.64
2023-02-19T12:34:55.034Z,100668.47
2023-02-19T12:37:39.323Z,100670.62
2023-02-19T12:40:45.598Z,100672.31
2023-02-19T12:43:23.271Z,100669.55
2023-02-19T12:46:18.497Z,100666.98
2023-02-19T12:48:52.956Z,100656.39
2023-02-19T12:51:32.207Z,100653.77
2023-02-19T12:53:59.114Z,100648.79
2023-02-19T12:56:34.066Z,100645.31
2023-02-19T12:59:39.540Z,100641.63
2023-02-19T13:02:09.991Z,100640.00
2023-02-19T13:04:55.955Z,100642.64
2023-02-19T13:07:35.780Z,100635.42
2023-02-19T13:10:17.812Z,100637.58
2023-02-19T13:12:48.539Z,100640.23
2023-02-19T13:15:21.752Z,100635.55
2023-02-19T13:17:52.405Z,100645.59
2023-02-19T13:20:35.258Z,100644.60
2023-02-19T13:23:36.925Z,100637.69
2023-02-19T13:26:08.019Z,100631.13
2023-02-19T13:29:15.965Z,100635.59
2023-02-19T13:32:05.259Z,100637.73
2023-02-19T13:34:56.146Z,100641.71
2023-02-19T13:37:27.466Z,100643.84
2023-02-19T13:40:06.088Z,100643.88
2023-02-19T13:42:51.075Z,100638.34
2023-02-19T13:45:38.021Z,100628.40
2023-02-19T13:48:23.591Z,100616.69
2023-02-19T13:51:36.527Z,100612.30
2023-02-19T13:54:40.126Z,100608.32
2023-02-19T13:57:24.140Z,100601.23
2023-02-19T13:59:57.428Z,100600.33
2023-02-19T14:02:39.544Z,100603.80
2023-02-19T14:05:11.081Z,100604.84
2023-02-19T14:07:55.447Z,100601.86
2023-02-19T14:11:01.978Z,100596.49
2023-02-19T14:13:47.771Z,100592.02
2023-02-19T14:16:37.350Z,100587.83
2023-02-19T14:19:14.387Z,100579.87
2023-02-19T14:21:46.049Z,100578.13
2023-02-19T14:24:20.079Z,100578.10
2023-02-19T14:26:51.136Z,100574.25
2023-02-19T14:29:18.942Z,100566.48
2023-02-19T14:31:47.180Z,100564.02
2023-02-19T14:34:25.272Z,100570.45
2023-02-19T14:37:01.279Z,100574.06
2023-02-19T14:39:33.374Z,100565.51
2023-02-19T14:42:06.392Z,100562.50
2023-02-19T14:44:47.756Z,100562.31
2023-02-19T14:47:21.274Z,100559.73
2023-02-19T14:50:04.203Z,100558.97
2023-02-19T14:52:43.773Z,100556.29
2023-02-19T14:55:34.833Z,100549.33
2023-02-19T14:58:16.970Z,100546.36
2023-02-19T15:00:44.483Z,100549.84
2023-02-19T15:03:37.137Z,100549.17
2023-02-19T15:06:12.189Z,100542.23
2023-02-19T15:08:44.862Z,100541.94
2023-02-19T15:11:18.779Z,100536.04
2023-02-19T15:13:58.397Z,100523.53
2023-02-19T15:16:30.581Z,100522.67
2023-02-19T15:19:00.923Z,100527.55
2023-02-19T15:21:33.586Z,100529.11
2023-02-19T15:24:04.664Z,100535.41
2023-02-19T15:26:41.357Z,100531.61
2023-02-19T15:29:14.782Z,100530.05
2023-02-19T15:31:56.954Z,100526.23
2023-02-19T15:34:26.532Z,100523.50
2023-02-19T15:37:00.548Z,100519.19
2023-02-19T15:39:32.331Z,100521.79
2023-02-19T15:42:03.672Z,100516.64
2023-02-19T15:44:49.401Z,100511.10
2023-02-19T15:47:20.916Z,100511.79
2023-02-19T15:50:01.057Z,100511.13
2023-02-19T15:52:44.570Z,100511.34
2023-02-19T15:55:48.262Z,100508.40
2023-02-19T15:58:39.832Z,100501.31
2023-02-19T16:01:21.186Z,100499.44
2023-02-19T16:03:48.978Z,100503.08
2023-02-19T16:06:18.005Z,100504.29
2023-02-19T16:09:01.568Z,100504.63
2023-02-19T16:11:39.344Z,100499.96
2023-02-19T16:14:38.537Z,100503.11
2023-02-19T16:17:11.399Z,100499.48
2023-02-19T16:19:41.918Z,100494.98
2023-02-19T16:22:15.490Z,100496.20
2023-02-19T16:24:48.748Z,100495.34
2023-02-19T16:27:31.205Z,100494.46
2023-02-19T16:30:02.600Z,100496.55
2023-02-19T16:32:29.745Z,100507.98
2023-02-19T16:34:56.974Z,100509.02
2023-02-19T16:37:38.478Z,100510.23
2023-02-19T16:40:08.693Z,100511.61
2023-02-19T16:43:01.972Z,100514.56
2023-02-19T16:45:29.401Z,100510.05
2023-02-19T16:47:56.584Z,100512.48
2023-02-19T16:50:26.399Z,100514.40
2023-02-19T16:52:59.101Z,100507.81
2023-02-19T16:55:27.955Z,100498.98
2023-02-19T16:57:55.407Z,100508.85
2023-02-19T17:00:27.807Z,100499.84
2023-02-19T17:03:01.663Z,100494.13
2023-02-19T17:05:32.047Z,100500.02
2023-02-19T17:07:59.027Z,100495.52
2023-02-19T17:10:26.887Z,100493.43
2023-02-19T17:12:55.210Z,100505.73
2023-02-19T17:15:23.031Z,100509.71
2023-02-19T17:17:52.378Z,100503.48
2023-02-19T17:20:28.965Z,100504.01
2023-02-19T17:22:56.414Z,100507.98
2023-02-19T17:25:23.526Z,100512.14
2023-02-19T17:27:50.565Z,100513.36
2023-02-19T17:30:30.143Z,100515.60
2023-02-19T17:32:58.597Z,100513.35
2023-02-19T17:35:25.959Z,100509.20
2023-02-19T17:37:53.585Z,100513.17
2023-02-19T17:40:32.783Z,100507.11
2023-02-19T17:43:02.389Z,100510.92
2023-02-19T17:45:29.708Z,100513.52
2023-02-19T17:47:57.741Z,100522.19
2023-02-19T17:50:28.419Z,100524.44
2023-02-19T17:52:56.581Z,100520.98
2023-02-19T17:55:24.436Z,100525.98
2023-02-19T17:57:55.821Z,100527.75
2023-02-19T18:00:26.847Z,100531.89
2023-02-19T18:02:54.193Z,100536.73
2023-02-19T18:05:25.567Z,100538.65
2023-02-19T18:07:56.383Z,100547.67
2023-02-19T18:10:25.455Z,100593.77
2023-02-19T18:12:52.420Z,100604.02
2023-02-19T18:15:22.793Z,100612.35
2023-02-19T18:17:50.085Z,100610.06
2023-02-19T18:20:20.867Z,100610.95
2023-02-19T18:22:52.197Z,100607.83
2023-02-19T18:25:23.110Z,100615.45
2023-02-19T18:27:51.242Z,100622.56
2023-02-19T18:30:22.174Z,100626.90
2023-02-19T18:32:51.336Z,100637.13
2023-02-19T18:35:20.702Z,100649.61
2023-02-19T18:37:55.929Z,100652.40
2023-02-19T18:40:28.154Z,100652.39
2023-02-19T18:42:55.459Z,100653.77
2023-02-19T18:45:22.870Z,100664.36
2023-02-19T18:47:50.519Z,100666.44
2023-02-19T18:50:19.286Z,100667.48
2023-02-19T18:52:48.674Z,100673.56
2023-02-19T18:55:16.183Z,100674.95
2023-02-19T18:57:43.934Z,100679.98
2023-02-19T19:00:19.193Z,100688.31
2023-02-19T19:02:49.721Z,100698.89
2023-02-19T19:05:25.344Z,100710.16
2023-02-19T19:07:58.681Z,100718.84
2023-02-19T19:10:27.025Z,100732.90
2023-02-19T19:12:54.617Z,100756.50
2023-02-19T19:15:23.074Z,100779.08
2023-02-19T19:17:51.200Z,100784.24
2023-02-19T19:20:25.640Z,100796.11
2023-02-19T19:22:55.892Z,100806.40
2023-02-19T19:25:26.183Z,100817.77
2023-02-19T19:27:58.846Z,100816.34
2023-02-19T19:30:26.293Z,100814.17
2023-02-19T19:32:54.075Z,100830.54
2023-02-19T19:35:23.675Z,100839.86
2023-02-19T19:37:51.019Z,100861.13
2023-02-19T19:40:23.274Z,100856.55
2023-02-19T19:42:52.881Z,100863.35
2023-02-19T19:45:28.826Z,100873.59
2023-02-19T19:47:56.426Z,100883.96
2023-02-19T19:50:24.771Z,100891.27
2023-02-19T19:52:53.483Z,100900.00
2023-02-19T19:55:21.519Z,100908.64
2023-02-19T19:57:49.801Z,100924.79
2023-02-19T20:00:18.880Z,100937.79
2023-02-19T20:02:46.473Z,100950.34
2023-02-19T20:05:15.107Z,100959.83
2023-02-19T20:07:42.895Z,100968.99
2023-02-19T20:10:12.397Z,100979.04
2023-02-19T20:12:40.231Z,100983.96
2023-02-19T20:15:08.066Z,100990.93
2023-02-19T20:17:35.383Z,100994.73
2023-02-19T20:20:02.814Z,101004.96
2023-02-19T20:22:29.949Z,101009.42
2023-02-19T20:24:57.579Z,101031.54
2023-02-19T20:27:24.804Z,101027.32
2023-02-19T20:29:52.057Z,101028.40
2023-02-19T20:32:19.566Z,101030.95
2023-02-19T20:34:48.040Z,101031.41
2023-02-19T20:37:15.400Z,101037.55
2023-02-19T20:39:43.075Z,101046.45
2023-02-19T20:42:10.497Z,101057.51
2023-02-19T20:44:37.487Z,101056.52
2023-02-19T20:47:04.670Z,101067.49
2023-02-19T20:49:32.041Z,101080.23
2023-02-19T20:52:04.266Z,101082.93
2023-02-19T20:54:33.447Z,101093.23
2023-02-19T20:57:04.308Z,101101.50
2023-02-19T20:59:38.093Z,101113.20
2023-02-19T21:02:14.132Z,101117.39
2023-02-19T21:04:41.148Z,101126.20
2023-02-19T21:07:07.952Z,101127.74
2023-02-19T21:09:35.792Z,101141.09
2023-02-19T21:12:02.942Z,101144.80
2023-02-19T21:14:30.190Z,101152.30
2023-02-19T21:16:57.238Z,101151.80
2023-02-19T21:19:24.466Z,101151.63
2023-02-19T21:21:51.618Z,101147.89
2023-02-19T21:24:18.625Z,101151.41
2023-02-19T21:26:45.983Z,101151.23
2023-02-19T21:29:18.453Z,101160.05
2023-02-19T21:31:48.863Z,101160.34
2023-02-19T21:34:20.128Z,101158.69
2023-02-19T21:36:47.336Z,101165.23
2023-02-19T21:39:17.976Z,101175.42
2023-02-19T21:41:45.063Z,101172.64
2023-02-19T21:44:13.103Z,101178.49
2023-02-19T21:46:40.333Z,101185.54
2023-02-19T21:49:07.384Z,101190.10
2023-02-19T21:51:37.975Z,101195.53
2023-02-19T21:54:06.429Z,101195.86
2023-02-19T21:56:36.399Z,101200.70
2023-02-19T21:59:04.095Z,101205.64
2023-02-19T22:01:37.968Z,101207.55
2023-02-19T22:04:10.044Z,101210.48
2023-02-19T22:06:38.998Z,101219.46
2023-02-19T22:09:09.110Z,101222.01
2023-02-19T22:11:36.315Z,101221.60
2023-02-19T22:14:03.567Z,101223.41
2023-02-19T22:16:30.887Z,101227.46
2023-02-19T22:18:59.191Z,101230.04
2023-02-19T22:21:29.964Z,101226.09
2023-02-19T22:24:02.096Z,101232.44
2023-02-19T22:26:36.033Z,101237.46
2023-02-19T22:29:06.488Z,101232.47
2023-02-19T22:31:34.285Z,101232.26
2023-02-19T22:34:01.704Z,101236.23
2023-02-19T22:36:31.076Z,101243.02
2023-02-19T22:38:59.770Z,101249.56
2023-02-19T22:41:26.982Z,101249.20
2023-02-19T22:43:54.449Z,101254.25
2023-02-19T22:46:24.837Z,101248.80
2023-02-19T22:48:51.999Z,101249.04
2023-02-19T22:51:22.178Z,101247.48
2023-02-19T22:53:54.804Z,101245.40
2023-02-19T22:56:24.453Z,101250.86
2023-02-19T22:58:52.315Z,101252.90
2023-02-19T23:01:19.747Z,101251.13
2023-02-19T23:03:48.085Z,101249.05
2023-02-19T23:06:16.668Z,101247.45
2023-02-19T23:08:44.009Z,101244.08
2023-02-19T23:11:12.653Z,101242.59
2023-02-19T23:13:42.730Z,101241.92
2023-02-19T23:16:10.088Z,101237.65
2023-02-19T23:18:37.375Z,101241.11
2023-02-19T23:21:05.031Z,101241.45
2023-02-19T23:23:32.032Z,101249.05
2023-02-19T23:25:58.980Z,101255.87
2023-02-19T23:28:25.962Z,101253.30
2023-02-19T23:30:53.188Z,101255.55
2023-02-19T23:33:20.284Z,101253.48
2023-02-19T23:35:49.559Z,101253.45
2023-02-19T23:38:17.800Z,101257.83
2023-02-19T23:40:45.012Z,101260.84
2023-02-19T23:43:11.872Z,101258.45
2023-02-19T23:45:38.796Z,101262.13
2023-02-19T23:48:05.663Z,101263.61
2023-02-19T23:50:32.721Z,101266.38
2023-02-19T23:52:59.721Z,101274.95
2023-02-19T23:55:26.874Z,101273.52
2023-02-19T23:57:54.083Z,101268.11
